Time;durP1;ratioP1;P1;durP2;ratioP2;P2;SDS_P1;SDS_P2;PMS_P1;PMS_P2;Temp;Humidity;BMP_temperature;BMP_pressure;BME280_temperature;BME280_humidity;BME280_pressure;Samples;Min_cycle;Max_cycle;Signal;HPM_P1;HPM_P2
2021/04/18 00:00:08;;;;;;;82.50;44.37;;;;;;;6.27;86.17;100464.79;115217;1199;103127;-84
2021/04/18 00:02:56;;;;;;;80.73;43.83;;;;;;;6.30;86.18;100463.05;115283;1199;104614;-84
2021/04/18 00:05:25;;;;;;;77.17;43.33;;;;;;;6.32;85.88;100468.20;115557;1199;103050;-83
2021/04/18 00:08:01;;;;;;;82.07;44.73;;;;;;;6.34;85.86;100469.05;115349;1200;102966;-84
2021/04/18 00:10:33;;;;;;;76.00;41.85;;;;;;;6.33;85.88;100469.92;115337;1200;103130;-83
2021/04/18 00:13:04;;;;;;;80.67;43.90;;;;;;;6.33;85.98;100469.92;115562;1199;103140;-83
2021/04/18 00:15:32;;;;;;;85.23;44.43;;;;;;;6.33;85.67;100463.01;115255;1200;103053;-83
2021/04/18 00:18:00;;;;;;;78.20;43.00;;;;;;;6.33;85.74;100468.19;115378;1200;103498;-83
2021/04/18 00:20:28;;;;;;;77.53;43.23;;;;;;;6.35;85.56;100465.58;115379;1200;101292;-83
2021/04/18 00:22:55;;;;;;;74.50;40.60;;;;;;;6.35;85.83;100462.98;115543;1199;103124;-83
2021/04/18 00:25:23;;;;;;;70.03;39.80;;;;;;;6.36;85.86;100469.88;115339;1200;103063;-83
2021/04/18 00:27:50;;;;;;;65.23;36.70;;;;;;;6.34;85.39;100453.50;115294;1199;103018;-85
2021/04/18 00:30:20;;;;;;;69.40;38.07;;;;;;;6.32;85.26;100461.30;115318;1200;103021;-83
2021/04/18 00:32:49;;;;;;;75.03;40.37;;;;;;;6.30;85.66;100457.01;115580;1199;103549;-83
2021/04/18 00:35:19;;;;;;;74.47;38.00;;;;;;;6.27;85.67;100457.88;115424;1198;103038;-83
2021/04/18 00:37:48;;;;;;;73.80;39.53;;;;;;;6.26;85.61;100455.30;115330;1200;103126;-83
2021/04/18 00:40:22;;;;;;;72.30;39.10;;;;;;;6.26;85.80;100450.13;115306;1199;103113;-83
2021/04/18 00:42:52;;;;;;;70.27;38.00;;;;;;;6.24;85.79;100446.70;115309;1200;103153;-83
2021/04/18 00:45:22;;;;;;;75.63;40.90;;;;;;;6.24;85.63;100438.92;115280;1199;102932;-83
2021/04/18 00:47:52;;;;;;;81.17;40.47;;;;;;;6.23;85.52;100445.84;115550;1200;103118;-83
2021/04/18 00:50:29;;;;;;;76.77;39.73;;;;;;;6.23;85.94;100437.21;115420;1199;102992;-83
2021/04/18 00:52:58;;;;;;;78.27;41.13;;;;;;;6.24;85.57;100442.38;115388;1200;102974;-83
2021/04/18 00:55:27;;;;;;;83.50;41.75;;;;;;;6.28;85.68;100443.19;115306;1199;103338;-83
2021/04/18 00:57:56;;;;;;;88.97;42.87;;;;;;;6.27;85.89;100442.33;115331;1199;103082;-83
2021/04/18 01:00:25;;;;;;;103.87;43.53;;;;;;;6.25;85.67;100445.82;115391;1199;102980;-83
2021/04/18 01:02:53;;;;;;;113.43;44.97;;;;;;;6.20;85.73;100445.02;115503;1199;103088;-83
2021/04/18 01:05:22;;;;;;;120.57;44.53;;;;;;;6.17;86.26;100445.06;115597;1199;103206;-83
2021/04/18 01:07:52;;;;;;;134.83;43.80;;;;;;;6.12;85.81;100444.27;115322;1199;103060;-83
2021/04/18 01:10:20;;;;;;;97.20;43.60;;;;;;;6.10;86.13;100438.22;115289;1200;103009;-83
2021/04/18 01:12:48;;;;;;;104.20;39.70;;;;;;;6.10;85.83;100438.22;115333;1199;102999;-84
2021/04/18 01:15:17;;;;;;;107.65;44.15;;;;;;;6.10;86.36;100444.25;115358;1199;103092;-83
2021/04/18 01:17:46;;;;;;;94.63;38.57;;;;;;;6.09;86.00;100432.18;115322;1199;103188;-83
2021/04/18 01:20:18;;;;;;;77.37;39.30;;;;;;;6.05;85.96;100431.36;115390;1197;103079;-83
2021/04/18 01:22:47;;;;;;;86.55;39.15;;;;;;;6.03;86.17;100427.94;115277;1199;102996;-83
2021/04/18 01:25:41;;;;;;;97.37;39.43;;;;;;;6.03;85.97;100425.34;115260;1200;102990;-83
2021/04/18 01:28:16;;;;;;;97.63;40.63;;;;;;;6.01;86.28;100429.69;115662;1199;101256;-83
2021/04/18 01:30:44;;;;;;;101.43;40.40;;;;;;;6.03;86.05;100429.66;115299;1199;103216;-83
2021/04/18 01:33:11;;;;;;;83.33;39.13;;;;;;;5.98;86.24;100432.31;115564;1200;102814;-83
2021/04/18 01:35:41;;;;;;;74.73;35.93;;;;;;;5.96;86.42;100430.62;115570;1199;103082;-84
2021/04/18 01:38:10;;;;;;;82.00;37.33;;;;;;;5.92;86.38;100424.59;115524;1197;103052;-84
2021/04/18 01:40:38;;;;;;;79.40;37.60;;;;;;;5.90;86.35;100423.75;115309;1199;101592;-84
2021/04/18 01:43:06;;;;;;;78.47;37.40;;;;;;;5.90;86.35;100421.16;115290;1199;103050;-83
2021/04/18 01:45:34;;;;;;;82.10;35.25;;;;;;;5.91;86.35;100422.02;115550;1197;104678;-83
2021/04/18 01:48:01;;;;;;;75.83;35.90;;;;;;;5.90;86.37;100412.54;115320;1199;103006;-83
2021/04/18 01:50:31;;;;;;;86.77;38.60;;;;;;;5.91;86.24;100411.66;115325;1200;102999;-83
2021/04/18 01:53:00;;;;;;;82.67;34.87;;;;;;;5.92;86.39;100411.64;115330;1200;103146;-84
2021/04/18 01:55:28;;;;;;;90.33;37.53;;;;;;;5.92;86.15;100411.64;115323;1199;101291;-83
2021/04/18 01:57:55;;;;;;;89.27;36.40;;;;;;;5.90;86.42;100413.39;115432;1200;103114;-84
2021/04/18 02:00:35;;;;;;;96.23;39.17;;;;;;;5.92;86.31;100411.64;115317;1199;103031;-83
2021/04/18 02:03:03;;;;;;;88.77;39.30;;;;;;;5.92;86.20;100411.64;115357;1199;101272;-83
2021/04/18 02:05:36;;;;;;;88.83;38.87;;;;;;;5.93;86.15;100410.80;115350;1199;103001;-83
2021/04/18 02:08:06;;;;;;;73.53;34.17;;;;;;;5.91;86.44;100412.52;115343;1199;103293;-83
2021/04/18 02:10:33;;;;;;;83.10;36.63;;;;;;;5.92;86.38;100408.20;115357;1199;103044;-84
2021/04/18 02:13:01;;;;;;;82.53;35.17;;;;;;;5.93;86.16;100413.39;115316;1199;103092;-83
2021/04/18 02:16:01;;;;;;;75.43;37.07;;;;;;;5.91;86.39;100412.52;115346;1197;103651;-84
2021/04/18 02:18:31;;;;;;;83.70;37.57;;;;;;;5.92;86.31;100409.05;115568;1200;103111;-83
2021/04/18 02:20:58;;;;;;;84.13;36.93;;;;;;;5.93;86.51;100415.98;115312;1199;102883;-83
2021/04/18 02:23:26;;;;;;;83.77;37.73;;;;;;;5.92;86.09;100413.38;115278;1200;103011;-84
2021/04/18 02:25:54;;;;;;;78.63;36.03;;;;;;;5.91;85.96;100415.11;115241;1199;103040;-84
2021/04/18 02:28:22;;;;;;;81.20;36.50;;;;;;;5.89;86.35;100410.80;115311;1199;103031;-84
2021/04/18 02:30:51;;;;;;;79.37;37.83;;;;;;;5.90;86.09;100405.63;115351;1199;103090;-84
2021/04/18 02:33:30;;;;;;;81.53;36.63;;;;;;;5.89;86.15;100406.47;115316;1200;103127;-84
2021/04/18 02:35:58;;;;;;;76.00;35.83;;;;;;;5.89;86.25;100411.65;115351;1198;102979;-84
2021/04/18 02:38:26;;;;;;;80.13;34.97;;;;;;;5.92;86.24;100414.23;115408;1200;103015;-83
2021/04/18 02:40:54;;;;;;;73.13;34.27;;;;;;;5.94;86.05;100412.52;115284;1200;103024;-83
2021/04/18 02:43:21;;;;;;;77.47;36.20;;;;;;;5.94;86.28;100407.34;115326;1200;103111;-83
2021/04/18 02:45:51;;;;;;;93.27;39.40;;;;;;;5.98;86.15;100405.56;115542;1199;103207;-83
2021/04/18 02:48:19;;;;;;;83.67;39.20;;;;;;;6.00;86.01;100417.61;115263;1199;104210;-84
2021/04/18 02:50:46;;;;;;;79.93;37.80;;;;;;;6.00;85.88;100417.61;115291;1199;103124;-83
2021/04/18 02:53:14;;;;;;;79.03;37.87;;;;;;;6.01;86.33;100408.97;115491;1199;104702;-83
2021/04/18 02:55:42;;;;;;;81.67;36.53;;;;;;;6.00;86.02;100412.44;115258;1200;103249;-84
2021/04/18 02:58:29;;;;;;;74.10;34.40;;;;;;;6.03;85.96;100411.55;115258;1199;103219;-83
2021/04/18 03:00:57;;;;;;;79.33;34.90;;;;;;;6.06;86.07;100417.54;115562;1200;103015;-83
2021/04/18 03:03:26;;;;;;;76.40;36.03;;;;;;;6.10;86.33;100417.50;115374;1199;103198;-83
2021/04/18 03:05:54;;;;;;;79.77;37.30;;;;;;;6.12;86.23;100411.45;115358;1199;103111;-84
2021/04/18 03:08:22;;;;;;;78.55;37.20;;;;;;;6.14;85.94;100414.03;115601;1199;101520;-84
2021/04/18 03:10:50;;;;;;;71.57;34.97;;;;;;;6.14;85.79;100424.38;115258;1199;103463;-84
2021/04/18 03:13:20;;;;;;;70.67;34.60;;;;;;;6.09;85.75;100418.38;115321;1199;102976;-83
2021/04/18 03:15:48;;;;;;;69.83;34.43;;;;;;;6.02;85.29;100415.86;115300;1198;103034;-83
2021/04/18 03:18:16;;;;;;;63.35;31.45;;;;;;;5.93;85.27;100420.30;115360;1199;103188;-83
2021/04/18 03:20:44;;;;;;;91.73;33.50;;;;;;;5.87;85.48;100420.31;115266;1200;103110;-83
2021/04/18 03:23:12;;;;;;;77.87;34.10;;;;;;;5.81;85.53;100418.66;115253;1198;103270;-83
2021/04/18 03:25:40;;;;;;;102.43;36.63;;;;;;;5.74;85.85;100417.86;115290;1199;103051;-83
2021/04/18 03:28:12;;;;;;;85.07;37.80;;;;;;;5.70;85.66;100413.56;115290;1199;103056;-83
2021/04/18 03:30:42;;;;;;;86.13;36.17;;;;;;;5.67;85.96;100420.50;115295;1199;103101;-84
2021/04/18 03:33:12;;;;;;;93.60;36.50;;;;;;;5.65;85.81;100424.84;115257;1198;103002;-83
2021/04/18 03:35:41;;;;;;;85.77;36.33;;;;;;;5.63;85.96;100427.45;115348;1199;103063;-83
2021/04/18 03:38:10;;;;;;;75.65;34.55;;;;;;;5.62;85.86;100427.47;115355;1200;103571;-83
2021/04/18 03:40:39;;;;;;;81.93;36.10;;;;;;;5.64;86.08;100429.16;115260;1200;103637;-83
2021/04/18 03:43:08;;;;;;;97.47;40.53;;;;;;;5.64;86.00;100423.13;115354;1199;101404;-83
2021/04/18 03:45:36;;;;;;;94.47;38.43;;;;;;;5.64;86.23;100423.13;115352;1198;101742;-83
2021/04/18 03:48:04;;;;;;;87.75;38.70;;;;;;;5.66;86.40;100431.73;115355;1199;103051;-83
2021/04/18 03:50:32;;;;;;;77.47;36.53;;;;;;;5.65;86.31;100422.25;115384;1199;103040;-83
2021/04/18 03:53:21;;;;;;;72.00;33.93;;;;;;;5.64;86.04;100423.13;115311;1199;102923;-83
2021/04/18 03:55:54;;;;;;;86.97;38.13;;;;;;;5.62;86.15;100430.05;115334;1199;103081;-84
2021/04/18 03:58:25;;;;;;;89.37;41.53;;;;;;;5.62;86.29;100437.81;115280;1199;103031;-84
2021/04/18 04:00:59;;;;;;;83.47;40.00;;;;;;;5.64;86.60;100436.92;115281;1199;102992;-84
2021/04/18 04:03:29;;;;;;;86.43;38.70;;;;;;;5.66;86.48;100434.31;115356;1199;103021;-84
2021/04/18 04:05:58;;;;;;;82.77;38.30;;;;;;;5.69;86.56;100436.88;115272;1199;103108;-84
2021/04/18 04:08:30;;;;;;;82.23;36.60;;;;;;;5.68;86.30;100446.37;115289;1199;103018;-84
2021/04/18 04:10:57;;;;;;;105.20;33.60;;;;;;;5.67;86.05;100452.41;115286;1199;101467;-83
2021/04/18 04:13:26;;;;;;;73.70;32.33;;;;;;;5.64;85.97;100449.86;115541;1198;103005;-83
2021/04/18 04:15:58;;;;;;;94.37;37.73;;;;;;;5.63;86.29;100448.14;115286;1200;103532;-83
2021/04/18 04:18:27;;;;;;;131.77;34.53;;;;;;;5.63;86.48;100463.67;115609;1199;103419;-83
2021/04/18 04:21:18;;;;;;;114.30;32.70;;;;;;;5.60;86.01;100455.09;115444;1200;103245;-83
2021/04/18 04:24:04;;;;;;;72.83;33.37;;;;;;;5.57;86.00;100458.56;115363;1199;103038;-83
2021/04/18 04:26:32;;;;;;;65.83;31.00;;;;;;;5.57;86.03;100452.53;115221;1200;103056;-83
2021/04/18 04:29:00;;;;;;;101.83;30.43;;;;;;;5.58;86.18;100460.27;115292;1199;103149;-83
2021/04/18 04:31:27;;;;;;;110.23;32.87;;;;;;;5.58;86.09;100459.42;115326;1198;103526;-83
2021/04/18 04:33:55;;;;;;;82.40;30.10;;;;;;;5.58;86.17;100449.07;115531;1199;103024;-83
2021/04/18 04:36:23;;;;;;;72.37;30.97;;;;;;;5.61;86.79;100454.21;115275;1199;103092;-84
2021/04/18 04:38:50;;;;;;;90.33;31.63;;;;;;;5.63;86.45;100463.67;115234;1198;102870;-83
2021/04/18 04:41:18;;;;;;;102.87;29.77;;;;;;;5.66;86.01;100457.61;115387;1199;103018;-83
2021/04/18 04:43:46;;;;;;;89.53;30.70;;;;;;;5.66;86.13;100460.20;115292;1198;102919;-84
2021/04/18 04:46:14;;;;;;;85.65;30.35;;;;;;;5.66;85.86;100457.61;115337;1199;103024;-83
2021/04/18 04:48:42;;;;;;;79.80;33.53;;;;;;;5.70;86.13;100460.15;115341;1198;101603;-83
2021/04/18 04:51:09;;;;;;;84.10;33.40;;;;;;;5.74;86.33;100461.86;115287;1199;102865;-83
2021/04/18 04:53:37;;;;;;;86.70;34.07;;;;;;;5.80;86.19;100463.52;115276;1198;103041;-84
2021/04/18 04:56:05;;;;;;;88.73;31.77;;;;;;;5.86;86.26;100468.63;115347;1200;103369;-83
2021/04/18 04:58:33;;;;;;;90.97;33.63;;;;;;;5.90;86.13;100467.75;115327;1199;101349;-83
2021/04/18 05:01:00;;;;;;;71.57;31.93;;;;;;;5.93;86.08;100472.94;115232;1199;103096;-84
2021/04/18 05:03:28;;;;;;;87.93;32.87;;;;;;;5.99;86.08;100467.69;115492;1200;103239;-84
2021/04/18 05:05:56;;;;;;;67.30;29.97;;;;;;;6.02;86.03;100467.64;115341;1199;103140;-84
2021/04/18 05:08:24;;;;;;;63.40;29.73;;;;;;;6.03;85.78;100468.50;115311;1200;103101;-83
2021/04/18 05:10:52;;;;;;;74.00;30.50;;;;;;;6.05;85.85;100470.20;115313;1199;103008;-83
2021/04/18 05:13:19;;;;;;;73.53;31.40;;;;;;;6.08;85.64;100471.03;115434;1198;103041;-84
2021/04/18 05:15:46;;;;;;;77.23;30.30;;;;;;;6.14;85.77;100471.00;115260;1200;103041;-83
2021/04/18 05:18:14;;;;;;;78.93;32.50;;;;;;;6.19;85.73;100466.62;115284;1199;103047;-83
2021/04/18 05:20:42;;;;;;;71.00;30.90;;;;;;;6.27;85.96;100468.23;115244;1198;103072;-83
2021/04/18 05:23:09;;;;;;;68.60;30.50;;;;;;;6.34;85.63;100466.45;115330;1199;103684;-83
2021/04/18 05:25:37;;;;;;;69.80;30.35;;;;;;;6.36;85.77;100468.14;115319;1198;103024;-83
2021/04/18 05:28:04;;;;;;;63.00;29.07;;;;;;;6.42;85.37;100474.98;115291;1198;103557;-84
2021/04/18 05:30:32;;;;;;;64.80;29.07;;;;;;;6.48;85.18;100468.89;115299;1198;103111;-83
2021/04/18 05:33:07;;;;;;;67.05;30.40;;;;;;;6.54;85.27;100479.17;115292;1200;103078;-83
2021/04/18 05:35:35;;;;;;;68.63;30.97;;;;;;;6.63;85.65;100482.49;115346;1199;103075;-83
2021/04/18 05:38:02;;;;;;;73.30;31.60;;;;;;;6.70;85.11;100477.25;115570;1198;103024;-83
2021/04/18 05:40:30;;;;;;;67.50;29.67;;;;;;;6.77;85.23;100478.88;115419;1199;102987;-83
2021/04/18 05:42:57;;;;;;;66.27;29.97;;;;;;;6.87;84.91;100480.48;115242;1200;103015;-83
2021/04/18 05:45:25;;;;;;;71.00;31.85;;;;;;;6.98;85.33;100481.18;115293;1198;103118;-84
2021/04/18 05:47:52;;;;;;;69.40;31.67;;;;;;;7.09;84.54;100481.05;115514;1199;103284;-83
2021/04/18 05:50:20;;;;;;;65.80;30.83;;;;;;;7.17;84.47;100480.04;115356;1199;102983;-83
2021/04/18 05:52:47;;;;;;;65.67;30.97;;;;;;;7.30;84.49;100487.66;115238;1199;103264;-84
2021/04/18 05:55:15;;;;;;;64.23;29.80;;;;;;;7.42;83.97;100495.27;115542;1199;104405;-84
2021/04/18 05:57:42;;;;;;;54.20;27.57;;;;;;;7.51;83.95;100484.72;115320;1199;103112;-83
2021/04/18 06:00:11;;;;;;;56.87;29.40;;;;;;;7.59;83.66;100490.67;115247;1200;103127;-84
2021/04/18 06:02:42;;;;;;;60.13;30.23;;;;;;;7.66;83.24;100489.67;115324;1199;103021;-84
2021/04/18 06:05:10;;;;;;;61.10;30.50;;;;;;;7.77;83.61;100482.58;115297;1199;103134;-83
2021/04/18 06:07:39;;;;;;;59.20;31.33;;;;;;;7.86;82.44;100485.00;115276;1198;103110;-84
2021/04/18 06:10:07;;;;;;;55.33;29.53;;;;;;;7.92;82.16;100480.61;115286;1199;103053;-84
2021/04/18 06:12:35;;;;;;;51.87;28.07;;;;;;;7.99;82.64;100485.66;115329;1199;103005;-84
2021/04/18 06:15:03;;;;;;;52.77;29.47;;;;;;;8.06;81.90;100482.05;115292;1199;103132;-83
2021/04/18 06:17:31;;;;;;;52.70;29.93;;;;;;;8.10;81.93;100478.53;115645;1199;103002;-83
2021/04/18 06:19:59;;;;;;;55.07;28.83;;;;;;;8.21;82.04;100485.26;115334;1199;103025;-83
2021/04/18 06:22:27;;;;;;;54.53;29.17;;;;;;;8.29;82.18;100481.64;115509;1200;102992;-83
2021/04/18 06:24:55;;;;;;;56.27;31.27;;;;;;;8.37;81.85;100484.97;115329;1197;103152;-83
2021/04/18 06:27:22;;;;;;;57.17;30.87;;;;;;;8.47;81.64;100486.52;115276;1199;103070;-84
2021/04/18 06:29:50;;;;;;;57.47;30.53;;;;;;;8.56;81.25;100482.01;115232;1199;103139;-84
2021/04/18 06:32:17;;;;;;;56.10;30.10;;;;;;;8.64;80.92;100485.33;115467;1199;103127;-84
2021/04/18 06:34:57;;;;;;;55.63;29.87;;;;;;;8.69;80.71;100481.73;115324;1200;103002;-84
2021/04/18 06:37:25;;;;;;;57.50;30.13;;;;;;;8.78;80.87;100485.88;115545;1200;102986;-83
2021/04/18 06:39:53;;;;;;;55.90;30.57;;;;;;;8.91;80.75;100487.34;115529;1199;106435;-84
2021/04/18 06:42:22;;;;;;;57.30;31.43;;;;;;;9.02;80.17;100484.52;115254;1198;102826;-84
2021/04/18 06:44:51;;;;;;;54.37;31.53;;;;;;;9.14;79.81;100493.77;115361;1199;103188;-83
2021/04/18 06:47:19;;;;;;;54.00;30.50;;;;;;;9.20;79.51;100494.52;115324;1199;103462;-83
2021/04/18 06:49:48;;;;;;;50.60;30.30;;;;;;;9.28;79.29;100495.18;115296;1200;103031;-83
2021/04/18 06:52:15;;;;;;;51.53;29.73;;;;;;;9.42;79.14;100496.62;115280;1199;103299;-83
2021/04/18 06:54:43;;;;;;;57.17;31.50;;;;;;;9.58;78.61;100491.02;115518;1198;103009;-83
2021/04/18 06:57:10;;;;;;;51.67;29.83;;;;;;;9.72;78.70;100492.44;115522;1200;103099;-83
2021/04/18 06:59:38;;;;;;;52.47;30.03;;;;;;;9.91;78.43;100491.08;115253;1199;103192;-83
2021/04/18 07:02:05;;;;;;;53.83;31.70;;;;;;;10.09;78.17;100490.60;115341;1200;102986;-83
2021/04/18 07:04:34;;;;;;;53.70;30.37;;;;;;;10.26;77.76;100485.83;115303;1198;103207;-83
2021/04/18 07:07:02;;;;;;;50.80;30.10;;;;;;;10.40;77.10;100493.25;115251;1200;102983;-83
2021/04/18 07:09:30;;;;;;;50.23;29.70;;;;;;;10.48;76.46;100490.45;115355;1200;102992;-83
2021/04/18 07:12:02;;;;;;;52.43;30.97;;;;;;;10.64;76.43;100485.66;115537;1197;103140;-83
2021/04/18 07:14:35;;;;;;;50.00;28.57;;;;;;;10.84;76.19;100492.00;115643;1197;101751;-83
2021/04/18 07:17:14;;;;;;;43.17;27.23;;;;;;;11.06;75.96;100483.53;115252;1199;102980;-83
2021/04/18 07:19:46;;;;;;;50.70;30.17;;;;;;;11.13;75.34;100490.27;115257;1198;103111;-83
2021/04/18 07:22:25;;;;;;;44.07;27.20;;;;;;;11.18;75.02;100485.78;115249;1198;103089;-83
2021/04/18 07:24:56;;;;;;;44.47;26.67;;;;;;;11.23;74.78;100490.85;115294;1198;103092;-83
2021/04/18 07:27:24;;;;;;;45.30;27.20;;;;;;;11.29;74.62;100499.34;115273;1198;103024;-83
2021/04/18 07:29:57;;;;;;;37.90;24.15;;;;;;;11.41;74.18;100491.13;115282;1200;103069;-83
2021/04/18 07:32:29;;;;;;;36.63;22.60;;;;;;;11.56;73.76;100492.41;115295;1198;102986;-83
2021/04/18 07:34:57;;;;;;;38.80;24.33;;;;;;;11.76;73.31;100491.75;115589;1198;103041;-83
2021/04/18 07:37:26;;;;;;;41.10;24.90;;;;;;;12.05;73.63;100498.66;115312;1199;102835;-84
2021/04/18 07:39:59;;;;;;;35.63;22.83;;;;;;;12.41;73.11;100493.91;115337;1199;101336;-83
2021/04/18 07:42:38;;;;;;;48.20;30.77;;;;;;;13.03;72.55;100489.86;115535;1199;102992;-83
2021/04/18 07:45:07;;;;;;;36.57;24.27;;;;;;;13.96;71.35;100483.51;115398;1198;102816;-84
2021/04/18 07:47:39;;;;;;;39.57;22.73;;;;;;;14.95;69.72;100482.63;115587;1198;103107;-84
2021/04/18 07:50:14;;;;;;;32.30;23.10;;;;;;;15.91;68.50;100475.34;115410;1197;103095;-84
2021/04/18 07:52:44;;;;;;;33.75;22.95;;;;;;;16.79;66.04;100469.87;115330;1200;101654;-85
2021/04/18 07:55:14;;;;;;;32.83;23.10;;;;;;;17.63;65.82;100470.44;115307;1199;103072;-85
2021/04/18 07:57:42;;;;;;;29.63;21.20;;;;;;;18.75;64.31;100469.05;115305;1199;103044;-83
2021/04/18 08:00:12;;;;;;;31.33;21.97;;;;;;;19.85;63.34;100458.33;115313;1200;103072;-83
2021/04/18 08:02:48;;;;;;;29.27;20.03;;;;;;;21.73;61.48;100454.73;115637;1198;103025;-83
2021/04/18 08:05:16;;;;;;;25.83;18.80;;;;;;;23.63;58.25;100446.75;115551;1200;103028;-83
2021/04/18 08:08:08;;;;;;;23.87;18.00;;;;;;;25.31;56.66;100451.64;115557;1199;103107;-83
2021/04/18 08:10:37;;;;;;;25.40;17.80;;;;;;;26.87;52.50;100445.05;115342;1199;103069;-83
2021/04/18 08:13:23;;;;;;;24.43;17.47;;;;;;;28.08;50.53;100436.53;115385;1198;103114;-83
2021/04/18 08:16:01;;;;;;;24.23;17.40;;;;;;;29.35;48.95;100435.59;115340;1200;103095;-84
2021/04/18 08:18:30;;;;;;;24.03;18.93;;;;;;;30.52;45.24;100435.20;115475;1199;103050;-83
2021/04/18 08:21:00;;;;;;;20.13;16.67;;;;;;;31.32;44.38;100432.30;115372;1199;103075;-84
2021/04/18 08:23:40;;;;;;;19.93;16.73;;;;;;;32.20;43.35;100430.89;115328;1200;103022;-84
2021/04/18 08:26:15;;;;;;;18.83;15.50;;;;;;;33.11;41.94;100429.64;115621;1200;102806;-84
2021/04/18 08:28:55;;;;;;;17.97;14.93;;;;;;;33.75;40.51;100432.34;115305;1199;102912;-84
2021/04/18 08:31:30;;;;;;;22.50;19.15;;;;;;;34.20;38.44;100429.19;115432;1199;103025;-84
2021/04/18 08:34:05;;;;;;;19.87;17.33;;;;;;;34.24;37.89;100422.34;115438;1200;103121;-84
2021/04/18 08:36:34;;;;;;;15.95;14.25;;;;;;;34.57;36.74;100437.97;115365;1199;103153;-84
2021/04/18 08:39:05;;;;;;;16.40;14.45;;;;;;;34.62;35.84;100431.94;115553;1199;103079;-84
2021/04/18 08:41:48;;;;;;;16.37;14.40;;;;;;;33.77;33.96;100431.15;115498;1199;103002;-85
2021/04/18 08:44:22;;;;;;;17.60;15.37;;;;;;;32.43;34.50;100437.91;115378;1200;103031;-85
2021/04/18 08:46:57;;;;;;;18.33;15.70;;;;;;;31.14;33.83;100435.26;115556;1199;103326;-85
2021/04/18 08:49:36;;;;;;;17.77;15.23;;;;;;;29.95;34.29;100443.35;115287;1199;102884;-85
2021/04/18 08:52:09;;;;;;;17.67;15.77;;;;;;;28.76;34.55;100434.75;115514;1198;103376;-85
2021/04/18 08:54:41;;;;;;;18.93;15.77;;;;;;;27.67;34.84;100438.92;115336;1200;102982;-85
2021/04/18 08:57:11;;;;;;;20.20;15.70;;;;;;;26.60;35.50;100445.91;115320;1198;103097;-85
2021/04/18 08:59:41;;;;;;;17.23;14.77;;;;;;;25.84;35.91;100444.08;115344;1198;102964;-84
2021/04/18 09:02:11;;;;;;;18.90;16.10;;;;;;;25.22;36.46;100437.31;115311;1199;103168;-85
2021/04/18 09:04:43;;;;;;;21.63;16.47;;;;;;;24.61;37.10;100445.42;115541;1199;102992;-85
2021/04/18 09:07:16;;;;;;;19.40;15.40;;;;;;;24.76;37.42;100443.20;115309;1199;103120;-84
2021/04/18 09:09:44;;;;;;;18.60;14.40;;;;;;;25.12;37.89;100444.45;115481;1198;102976;-84
2021/04/18 09:12:16;;;;;;;17.07;14.40;;;;;;;25.16;37.36;100443.22;115378;1199;103166;-85
2021/04/18 09:14:49;;;;;;;19.30;13.70;;;;;;;24.59;37.44;100442.02;115340;1199;103072;-85
2021/04/18 09:17:28;;;;;;;16.67;14.00;;;;;;;24.19;37.81;100452.61;115356;1199;102995;-84
2021/04/18 09:20:01;;;;;;;16.90;14.83;;;;;;;23.89;38.02;100450.75;115352;1198;102842;-84
2021/04/18 09:22:30;;;;;;;20.60;17.10;;;;;;;23.39;37.73;100446.95;115404;1198;103135;-85
2021/04/18 09:25:15;;;;;;;21.80;17.43;;;;;;;22.90;39.23;100461.56;115565;1198;102980;-85
2021/04/18 09:27:51;;;;;;;23.13;17.53;;;;;;;22.52;39.30;100457.44;115322;1200;103012;-85
2021/04/18 09:30:27;;;;;;;18.73;16.07;;;;;;;22.10;39.87;100452.81;115477;1199;103082;-84
2021/04/18 09:32:59;;;;;;;23.10;19.35;;;;;;;21.67;39.82;100451.56;115316;1199;103139;-85
2021/04/18 09:35:28;;;;;;;23.33;18.53;;;;;;;21.35;40.85;100450.45;115430;1199;103006;-84
2021/04/18 09:38:01;;;;;;;24.13;19.07;;;;;;;21.04;40.97;100454.48;115316;1200;103034;-84
2021/04/18 09:40:37;;;;;;;23.60;20.07;;;;;;;20.61;40.73;100454.03;115404;1199;102887;-84
2021/04/18 09:43:08;;;;;;;24.10;20.03;;;;;;;20.23;41.54;100452.22;115428;1198;103088;-85
2021/04/18 09:45:36;;;;;;;22.37;19.17;;;;;;;19.85;42.10;100460.97;115318;1199;103503;-85
2021/04/18 09:48:12;;;;;;;21.03;17.70;;;;;;;19.52;42.64;100455.25;115628;1199;103028;-85
2021/04/18 09:50:41;;;;;;;22.45;18.80;;;;;;;19.23;42.82;100455.37;115539;1199;103015;-85
2021/04/18 09:53:12;;;;;;;26.00;18.67;;;;;;;18.99;43.55;100463.05;115315;1198;103095;-85
2021/04/18 09:56:00;;;;;;;23.77;17.53;;;;;;;18.88;44.06;100465.55;115383;1200;102820;-85
2021/04/18 09:58:35;;;;;;;24.30;19.50;;;;;;;19.22;44.75;100458.12;115289;1199;103079;-85
2021/04/18 10:01:05;;;;;;;23.03;18.13;;;;;;;20.07;44.67;100454.22;115358;1200;102064;-85
2021/04/18 10:03:44;;;;;;;21.70;17.43;;;;;;;21.16;44.33;100456.22;115590;1199;102985;-85
2021/04/18 10:06:18;;;;;;;24.53;18.00;;;;;;;22.06;41.79;100446.88;115360;1199;102031;-85
2021/04/18 10:08:58;;;;;;;22.70;17.73;;;;;;;22.50;40.61;100451.41;115359;1200;103210;-85
2021/04/18 10:11:26;;;;;;;18.33;15.93;;;;;;;22.84;40.62;100444.30;115371;1199;102986;-85
2021/04/18 10:14:00;;;;;;;21.50;16.25;;;;;;;23.24;39.07;100449.04;115392;1199;103031;-85
2021/04/18 10:16:36;;;;;;;17.93;14.73;;;;;;;23.75;39.56;100448.39;115603;1199;101900;-85
2021/04/18 10:19:19;;;;;;;18.57;15.00;;;;;;;23.69;37.86;100438.23;115385;1199;103095;-85
2021/04/18 10:22:06;;;;;;;19.35;15.65;;;;;;;23.25;38.04;100452.55;115347;1200;103101;-85
2021/04/18 10:24:50;;;;;;;18.80;16.17;;;;;;;22.54;37.24;100449.34;115498;1200;103066;-85
2021/04/18 10:27:22;;;;;;;17.57;14.80;;;;;;;21.84;39.13;100446.80;115405;1200;101315;-85
2021/04/18 10:29:51;;;;;;;18.00;14.73;;;;;;;21.12;39.10;100457.41;115571;1199;103011;-85
2021/04/18 10:32:21;;;;;;;20.90;17.20;;;;;;;20.73;39.85;100445.22;115276;1199;102964;-84
2021/04/18 10:34:52;;;;;;;21.07;17.03;;;;;;;20.32;40.37;100454.25;115423;1199;103038;-85
2021/04/18 10:37:20;;;;;;;21.57;17.30;;;;;;;20.08;41.50;100448.82;115305;1199;102983;-85
2021/04/18 10:39:51;;;;;;;22.97;17.47;;;;;;;20.35;42.31;100446.09;115304;1199;103079;-85
2021/04/18 10:42:18;;;;;;;20.97;17.13;;;;;;;20.53;41.84;100448.44;115365;1198;103162;-85
2021/04/18 10:44:46;;;;;;;21.20;16.63;;;;;;;20.42;41.65;100457.13;115296;1199;103092;-86
2021/04/18 10:47:18;;;;;;;24.57;17.73;;;;;;;20.12;41.51;100444.19;115327;1199;103008;-85
2021/04/18 10:49:49;;;;;;;23.60;18.25;;;;;;;19.80;42.51;100444.56;115302;1199;102990;-85
2021/04/18 10:52:17;;;;;;;22.90;17.30;;;;;;;19.74;42.45;100447.60;115258;1199;103017;-85
2021/04/18 10:54:45;;;;;;;20.53;16.07;;;;;;;19.85;43.33;100453.03;115521;1199;102974;-84
2021/04/18 10:57:12;;;;;;;22.87;17.77;;;;;;;19.98;42.78;100441.63;115338;1199;102918;-84
2021/04/18 10:59:40;;;;;;;20.33;15.97;;;;;;;19.84;42.80;100448.70;115497;1199;102992;-83
2021/04/18 11:02:08;;;;;;;19.60;16.13;;;;;;;19.94;43.06;100442.80;115329;1199;103065;-84
2021/04/18 11:04:35;;;;;;;20.27;15.30;;;;;;;20.13;42.95;100443.23;115365;1198;103133;-84
2021/04/18 11:07:08;;;;;;;20.63;15.97;;;;;;;20.25;42.09;100442.36;115609;1199;103060;-84
2021/04/18 11:09:37;;;;;;;18.90;15.37;;;;;;;20.28;41.65;100438.66;115338;1200;102871;-84
2021/04/18 11:12:19;;;;;;;17.03;14.10;;;;;;;20.49;42.16;100438.06;115385;1199;103056;-86
2021/04/18 11:14:47;;;;;;;20.03;15.40;;;;;;;20.51;41.65;100436.14;115349;1198;103002;-85